Time;durP1;ratioP1;P1;durP2;ratioP2;P2;SDS_P1;SDS_P2;PMS_P1;PMS_P2;Temp;Humidity;BMP_temperature;BMP_pressure;BME280_temperature;BME280_humidity;BME280_pressure;Samples;Min_cycle;Max_cycle;Signal;HPM_P1;HPM_P2
2021/06/22 00:00:20;;;;;;;0.32;0.32;;;24.70;53.50;;;28.23;36.99;100986.28;5160659;27;20433;-50
2021/06/22 00:02:46;;;;;;;0.30;0.30;;;24.70;53.50;;;28.23;36.85;100983.59;5142686;27;20091;-50
2021/06/22 00:05:13;;;;;;;0.43;0.43;;;24.70;53.50;;;28.24;36.92;100979.91;5160505;27;20054;-49
2021/06/22 00:07:39;;;;;;;0.30;0.30;;;24.70;53.50;;;28.20;36.81;100973.13;5160339;27;20050;-48
2021/06/22 00:10:06;;;;;;;0.52;0.40;;;24.70;53.50;;;28.22;36.73;100975.69;5160479;27;20057;-49
2021/06/22 00:12:32;;;;;;;0.30;0.30;;;24.70;53.50;;;28.22;37.08;100967.59;5160363;27;20042;-52
2021/06/22 00:14:58;;;;;;;0.38;0.38;;;24.70;53.50;;;28.21;36.90;100977.50;5160443;27;20068;-49
2021/06/22 00:17:24;;;;;;;0.30;0.30;;;24.70;53.60;;;28.18;36.88;100979.63;5160277;27;20042;-47
2021/06/22 00:19:50;;;;;;;0.30;0.30;;;24.70;53.60;;;28.19;36.84;100984.00;5160326;27;20141;-53
2021/06/22 00:22:15;;;;;;;0.35;0.35;;;24.60;53.50;;;28.21;36.83;100995.47;5160390;27;20042;-53
2021/06/22 00:24:41;;;;;;;0.30;0.30;;;24.70;53.60;;;28.21;36.96;101003.53;5160347;27;20419;-51
2021/06/22 00:27:07;;;;;;;0.70;0.40;;;24.70;53.60;;;28.19;36.84;101010.91;5160449;27;20463;-49
2021/06/22 00:29:33;;;;;;;0.38;0.38;;;24.60;53.50;;;28.19;36.80;101025.19;5160203;27;20112;-52
2021/06/22 00:31:59;;;;;;;0.40;0.40;;;24.60;54.10;;;28.20;36.87;101034.09;5160188;27;20046;-53
2021/06/22 00:34:25;;;;;;;0.40;0.40;;;24.60;53.60;;;28.17;37.17;101020.94;5137664;27;20047;-51
2021/06/22 00:36:51;;;;;;;0.60;0.40;;;24.60;53.60;;;28.18;36.95;101019.94;5138273;27;20043;-49
2021/06/22 00:39:18;;;;;;;0.40;0.40;;;24.60;53.60;;;28.17;36.88;101018.25;5156664;27;20411;-49
2021/06/22 00:41:44;;;;;;;0.40;0.40;;;24.60;53.60;;;28.15;36.96;101021.09;5156633;27;20519;-49
2021/06/22 00:44:10;;;;;;;0.30;0.30;;;24.60;53.60;;;28.16;37.20;101035.38;5156707;27;20058;-52
2021/06/22 00:46:37;;;;;;;0.30;0.30;;;24.60;53.60;;;28.17;36.89;101050.53;5136067;27;20047;-48
2021/06/22 00:49:04;;;;;;;0.43;0.40;;;24.60;54.20;;;28.15;36.92;101056.03;5156674;27;20058;-50
2021/06/22 00:51:35;;;;;;;0.40;0.40;;;24.60;53.60;;;28.15;37.07;101047.09;5121043;27;20054;-51
2021/06/22 00:54:02;;;;;;;0.30;0.30;;;24.60;53.70;;;28.14;37.24;101046.25;5137031;27;20043;-49
2021/06/22 00:56:32;;;;;;;0.50;0.50;;;24.60;53.60;;;28.15;37.12;101042.59;5156300;27;20500;-53
2021/06/22 00:58:58;;;;;;;0.40;0.40;;;24.60;53.60;;;28.15;36.90;101047.09;5155930;27;20107;-51
2021/06/22 01:01:24;;;;;;;0.30;0.30;;;24.60;53.70;;;28.13;37.07;101035.63;5137433;27;20488;-47
2021/06/22 01:03:51;;;;;;;0.30;0.30;;;24.60;53.70;;;28.10;37.12;101023.34;5136665;27;20047;-50
2021/06/22 01:06:20;;;;;;;0.30;0.30;;;24.60;53.70;;;28.11;36.95;101027.72;5156223;27;20058;-50
2021/06/22 01:09:05;;;;;;;0.40;0.40;;;24.60;53.70;;;28.12;37.21;101044.69;5135921;27;20104;-45
2021/06/22 01:11:33;;;;;;;0.35;0.35;;;24.60;53.70;;;28.13;36.85;101031.09;5136013;27;20481;-49
2021/06/22 01:13:59;;;;;;;0.40;0.40;;;24.60;53.80;;;28.09;37.14;101030.53;5137199;27;20047;-52
2021/06/22 01:16:26;;;;;;;0.40;0.40;;;24.50;53.70;;;28.08;37.18;101030.66;5136965;27;20476;-48
2021/06/22 01:18:58;;;;;;;0.40;0.40;;;24.50;53.70;;;28.08;37.02;101038.72;5156003;27;20051;-46
2021/06/22 01:21:28;;;;;;;0.38;0.38;;;24.50;53.70;;;28.08;36.89;101042.28;5155998;27;20054;-54
2021/06/22 01:24:18;;;;;;;0.47;0.40;;;24.50;53.70;;;28.07;37.20;101042.44;5136801;27;20141;-54
2021/06/22 01:26:57;;;;;;;0.40;0.40;;;24.50;53.70;;;28.05;37.24;101039.88;5155886;27;20501;-49
2021/06/22 01:29:25;;;;;;;0.40;0.40;;;24.50;53.70;;;28.06;37.15;101036.19;5137416;27;20507;-49
2021/06/22 01:31:55;;;;;;;0.35;0.35;;;24.50;53.70;;;28.07;37.31;101039.75;5155737;27;20043;-53
2021/06/22 01:34:28;;;;;;;0.55;0.32;;;24.50;53.80;;;28.03;37.03;101036.47;5137894;27;20391;-49
2021/06/22 01:36:56;;;;;;;0.40;0.40;;;24.50;53.80;;;28.04;37.08;101023.88;5155669;27;20042;-50
2021/06/22 01:39:26;;;;;;;0.57;0.57;;;24.50;53.80;;;28.03;37.33;101023.03;5135432;27;20138;-49
2021/06/22 01:41:53;;;;;;;0.40;0.40;;;24.50;53.80;;;28.04;37.07;101026.56;5136932;27;20042;-50
2021/06/22 01:44:27;;;;;;;0.30;0.30;;;24.50;53.80;;;28.00;37.05;101023.31;5136599;27;20440;-50
2021/06/22 01:46:54;;;;;;;0.40;0.40;;;24.50;53.80;;;28.00;37.23;101007.19;5136966;27;20043;-49
2021/06/22 01:49:21;;;;;;;0.30;0.30;;;24.50;53.80;;;28.01;36.95;101010.72;5136909;27;20053;-50
2021/06/22 01:51:48;;;;;;;0.50;0.50;;;24.50;53.80;;;28.03;37.16;101022.16;5155380;27;20047;-44
2021/06/22 01:54:14;;;;;;;0.38;0.38;;;24.50;53.80;;;28.02;36.99;101025.88;5136841;27;20047;-51
2021/06/22 01:56:48;;;;;;;0.30;0.30;;;24.40;53.80;;;28.00;37.33;101026.00;5136771;27;20051;-48
2021/06/22 01:59:21;;;;;;;0.40;0.40;;;24.50;53.90;;;28.01;37.29;101042.97;5155729;27;20057;-48
2021/06/22 02:02:10;;;;;;;0.30;0.30;;;24.50;53.80;;;28.02;36.99;101048.22;5146587;27;20043;-50
2021/06/22 02:04:42;;;;;;;;;;;24.50;53.90;;;28.08;36.85;101052.19;5137685;27;20042;-50
2021/06/22 02:07:13;;;;;;;0.30;0.30;;;24.40;53.80;;;28.06;37.15;101065.75;5137490;27;19914;-50
2021/06/22 02:09:58;;;;;;;0.30;0.30;;;24.40;53.80;;;28.02;37.26;101082.31;5155659;27;20515;-50
2021/06/22 02:12:44;;;;;;;0.40;0.40;;;24.40;53.80;;;27.99;37.27;101082.56;5155034;27;20049;-46
2021/06/22 02:15:11;;;;;;;0.35;0.35;;;24.40;53.80;;;27.97;36.96;101087.25;5155362;27;20381;-47
2021/06/22 02:17:37;;;;;;;0.30;0.30;;;24.40;53.90;;;27.97;37.15;101090.78;5136395;27;20203;-47
2021/06/22 02:20:05;;;;;;;0.32;0.32;;;24.40;54.40;;;27.94;37.09;101082.97;5119453;27;20054;-52
2021/06/22 02:22:36;;;;;;;0.40;0.40;;;24.40;53.90;;;27.92;37.20;101082.25;5136977;27;20505;-48
2021/06/22 02:25:05;;;;;;;0.40;0.40;;;24.40;54.40;;;27.95;37.10;101097.25;5136446;27;20197;-50
2021/06/22 02:27:33;;;;;;;0.40;0.40;;;24.40;53.90;;;27.93;37.40;101093.84;5134452;27;20051;-50
2021/06/22 02:30:07;;;;;;;0.30;0.30;;;24.40;53.90;;;27.91;37.22;101092.13;5133239;27;20043;-48
2021/06/22 02:32:39;;;;;;;0.40;0.40;;;24.40;53.90;;;27.95;37.29;101094.56;5136279;27;20510;-49
2021/06/22 02:35:12;;;;;;;0.50;0.35;;;24.40;53.90;;;27.91;37.43;101086.75;5136186;27;20055;-47
2021/06/22 02:37:40;;;;;;;0.40;0.40;;;24.40;53.90;;;27.89;37.29;101077.13;5136164;27;20043;-48
2021/06/22 02:40:09;;;;;;;0.30;0.30;;;24.40;54.00;;;27.92;37.43;101090.31;5136313;27;20039;-50
2021/06/22 02:42:36;;;;;;;0.30;0.30;;;24.40;53.90;;;27.91;37.29;101083.22;5136015;27;20077;-49
2021/06/22 02:45:13;;;;;;;0.30;0.30;;;24.40;54.00;;;27.89;37.31;101083.34;5155264;27;20058;-50
2021/06/22 02:47:40;;;;;;;0.40;0.40;;;24.40;54.00;;;27.91;37.19;101093.97;5136481;27;20369;-51
2021/06/22 02:50:07;;;;;;;0.40;0.40;;;24.40;54.00;;;27.89;37.26;101085.19;5136240;27;20476;-51
2021/06/22 02:52:37;;;;;;;0.32;0.32;;;24.40;54.00;;;27.93;37.16;101080.41;5136579;27;20050;-51
2021/06/22 02:55:03;;;;;;;0.40;0.40;;;24.30;54.00;;;27.88;37.15;101068.22;5134178;27;20043;-50
2021/06/22 02:57:29;;;;;;;0.40;0.40;;;24.30;54.00;;;27.88;37.49;101070.91;5117864;27;20047;-50
2021/06/22 02:59:58;;;;;;;0.40;0.40;;;24.30;54.00;;;27.85;37.33;101065.81;5135719;27;20133;-52
2021/06/22 03:02:26;;;;;;;0.52;0.50;;;24.40;54.00;;;27.89;37.14;101066.38;5135672;27;20096;-49
2021/06/22 03:04:52;;;;;;;0.40;0.40;;;24.30;54.00;;;27.88;37.51;101070.91;5135663;27;20369;-48
2021/06/22 03:07:19;;;;;;;0.40;0.40;;;24.30;54.00;;;27.89;37.40;101061.84;5133958;27;20069;-47
2021/06/22 03:09:45;;;;;;;0.30;0.30;;;24.40;54.00;;;27.86;37.19;101045.16;5136071;27;20157;-46
2021/06/22 03:12:11;;;;;;;0.35;0.35;;;24.30;53.90;;;27.87;37.50;101052.25;5154621;27;20082;-49
2021/06/22 03:14:55;;;;;;;0.40;0.40;;;24.30;54.00;;;27.87;37.40;101054.94;5154347;27;20053;-46
2021/06/22 03:17:30;;;;;;;0.40;0.40;;;24.30;54.00;;;27.86;37.47;101072.03;5135380;27;20054;-48
2021/06/22 03:19:57;;;;;;;0.30;0.30;;;24.30;54.00;;;27.86;37.47;101094.34;5118753;27;20039;-48
2021/06/22 03:22:24;;;;;;;0.38;0.38;;;24.30;54.00;;;27.86;37.32;101096.22;5136136;27;20043;-46
2021/06/22 03:24:51;;;;;;;0.30;0.30;;;24.30;54.00;;;27.85;37.34;101106.13;5135623;27;20039;-48
2021/06/22 03:27:17;;;;;;;0.30;0.30;;;24.30;54.00;;;27.87;37.42;101109.50;5153695;27;20115;-53
2021/06/22 03:30:10;;;;;;;0.40;0.40;;;24.30;54.00;;;27.86;37.06;101118.53;5153862;27;20487;-50
2021/06/22 03:32:37;;;;;;;0.40;0.40;;;24.30;54.00;;;27.87;37.39;101122.94;5135840;27;20042;-50
2021/06/22 03:35:08;;;;;;;0.40;0.40;;;24.30;54.00;;;27.84;37.30;101127.75;5154541;27;20129;-48
2021/06/22 03:37:34;;;;;;;0.30;0.30;;;24.30;54.00;;;27.88;37.35;101139.91;5153745;27;20055;-47
2021/06/22 03:40:05;;;;;;;0.30;0.30;;;24.30;54.00;;;27.87;37.42;101149.81;5153943;27;20073;-48
2021/06/22 03:42:34;;;;;;;0.40;0.40;;;24.30;54.00;;;27.87;37.33;101157.03;5135291;27;20051;-50
2021/06/22 03:45:04;;;;;;;0.35;0.35;;;24.30;54.00;;;27.82;37.46;101152.06;5135169;27;20070;-49
2021/06/22 03:47:32;;;;;;;0.30;0.30;;;24.30;54.00;;;27.85;37.49;101173.28;5134739;27;20050;-50
2021/06/22 03:49:58;;;;;;;0.40;0.40;;;24.30;54.00;;;27.86;37.38;101174.97;5153886;27;20043;-46
2021/06/22 03:52:24;;;;;;;0.40;0.40;;;24.30;54.00;;;27.84;37.22;101179.63;5133506;27;20087;-52
2021/06/22 03:54:51;;;;;;;0.35;0.35;;;24.30;54.00;;;27.85;37.09;101167.03;5134403;27;20058;-47
2021/06/22 03:57:17;;;;;;;0.30;0.30;;;24.30;54.00;;;27.83;37.21;101153.78;5134959;27;20057;-49
2021/06/22 04:00:08;;;;;;;0.40;0.40;;;24.30;54.00;;;27.87;37.42;101143.59;5135019;27;20055;-49
2021/06/22 04:02:42;;;;;;;0.40;0.40;;;24.30;54.00;;;27.85;37.46;101134.81;5154369;27;20057;-50
2021/06/22 04:05:10;;;;;;;0.32;0.32;;;24.30;54.00;;;27.87;37.20;101132.84;5134859;27;20039;-50
2021/06/22 04:07:42;;;;;;;0.30;0.30;;;24.30;54.00;;;27.85;37.28;101127.63;5154067;27;20090;-44
2021/06/22 04:10:10;;;;;;;0.30;0.30;;;24.30;53.90;;;27.86;37.28;101115.84;5139159;27;20042;-50
2021/06/22 04:12:41;;;;;;;0.30;0.30;;;24.30;54.00;;;27.88;37.24;101118.41;5138650;27;20050;-50
2021/06/22 04:15:09;;;;;;;0.30;0.30;;;24.30;53.90;;;27.84;37.18;101112.47;5157063;27;20070;-48
2021/06/22 04:17:35;;;;;;;0.30;0.30;;;24.30;53.90;;;27.89;37.18;101126.34;5138143;27;20047;-50
2021/06/22 04:20:02;;;;;;;0.20;0.20;;;24.30;53.90;;;27.90;37.03;101132.59;5138570;27;20051;-48
2021/06/22 04:22:28;;;;;;;0.38;0.38;;;24.40;53.90;;;27.89;37.08;101133.56;5138403;27;20070;-47
2021/06/22 04:25:08;;;;;;;0.40;0.40;;;24.30;53.80;;;27.89;37.35;101120.13;5138903;27;20053;-50
2021/06/22 04:27:34;;;;;;;0.30;0.30;;;24.30;53.80;;;27.87;37.42;101120.25;5156681;27;20072;-50
2021/06/22 04:30:00;;;;;;;0.32;0.30;;;24.40;53.80;;;27.87;37.24;101122.09;5156958;27;20410;-48
2021/06/22 04:32:26;;;;;;;0.40;0.40;;;24.40;53.80;;;27.93;37.14;101123.41;5157339;27;20080;-48
2021/06/22 04:34:52;;;;;;;0.30;0.30;;;24.30;53.80;;;27.93;36.99;101126.94;5156938;27;20121;-49
2021/06/22 04:37:18;;;;;;;0.30;0.30;;;24.40;53.80;;;27.93;36.97;101128.78;5156643;27;20058;-49
2021/06/22 04:39:43;;;;;;;0.40;0.40;;;24.40;53.80;;;27.92;37.01;101111.81;5156730;27;20047;-49
2021/06/22 04:42:09;;;;;;;0.30;0.30;;;24.40;53.80;;;27.94;36.93;101115.22;5138579;27;20480;-49
2021/06/22 04:44:35;;;;;;;0.30;0.30;;;24.30;53.70;;;27.93;37.17;101118.06;5156982;27;20050;-51
2021/06/22 04:47:01;;;;;;;0.40;0.40;;;24.40;53.70;;;27.94;37.16;101122.44;5135611;27;20057;-47
2021/06/22 04:49:26;;;;;;;0.30;0.30;;;24.40;53.70;;;27.96;37.18;101126.69;5156793;27;20143;-47
2021/06/22 04:51:52;;;;;;;0.30;0.30;;;24.40;53.70;;;27.96;36.96;101126.69;5156506;27;20052;-51
2021/06/22 04:54:19;;;;;;;0.30;0.30;;;24.40;53.70;;;27.97;36.95;101132.94;5156799;27;20047;-47
2021/06/22 04:56:49;;;;;;;0.30;0.30;;;24.40;53.70;;;27.95;37.02;101132.19;5156324;27;20415;-48
2021/06/22 04:59:14;;;;;;;0.30;0.30;;;24.40;53.70;;;27.97;37.11;101130.25;5156365;27;20051;-47
2021/06/22 05:01:40;;;;;;;0.30;0.30;;;24.40;53.60;;;27.93;37.06;101123.41;5156434;27;20080;-49
2021/06/22 05:04:06;;;;;;;0.40;0.40;;;24.40;53.70;;;27.94;37.08;101120.59;5136102;27;20130;-45
2021/06/22 05:06:33;;;;;;;0.30;0.30;;;24.40;53.60;;;27.97;37.10;101120.34;5156105;27;20579;-45
2021/06/22 05:08:58;;;;;;;0.40;0.40;;;24.40;53.60;;;27.96;36.91;101109.72;5156067;27;20038;-46
2021/06/22 05:11:24;;;;;;;0.40;0.40;;;24.40;53.60;;;27.98;37.08;101113.97;5156076;27;20051;-45
2021/06/22 05:13:51;;;;;;;0.40;0.40;;;24.40;53.50;;;28.02;36.94;101130.69;5156731;27;20095;-48
2021/06/22 05:16:17;;;;;;;0.40;0.40;;;24.40;53.50;;;28.04;36.89;101134.94;5156692;27;20051;-49
2021/06/22 05:18:45;;;;;;;0.38;0.38;;;24.50;53.50;;;28.06;36.78;101143.69;5156032;27;20125;-44
2021/06/22 05:21:11;;;;;;;0.30;0.30;;;24.50;53.40;;;28.05;36.89;101142.03;5155624;27;20051;-44
2021/06/22 05:23:37;;;;;;;0.52;0.40;;;24.50;53.30;;;28.12;36.79;101154.91;5137537;27;20043;-47
2021/06/22 05:26:03;;;;;;;0.40;0.40;;;24.50;53.20;;;28.16;36.97;101161.72;5155904;27;20411;-51
2021/06/22 05:28:29;;;;;;;0.50;0.50;;;24.60;53.10;;;28.19;36.58;101172.22;5155735;27;20090;-49
2021/06/22 05:30:55;;;;;;;0.40;0.40;;;24.70;53.10;;;28.24;36.52;101178.03;5156186;27;20448;-50
2021/06/22 05:33:22;;;;;;;0.30;0.30;;;24.70;53.00;;;28.25;36.58;101161.75;5155788;27;20166;-48
2021/06/22 05:35:48;;;;;;;0.30;0.30;;;24.70;52.90;;;28.33;36.51;101166.44;5156261;27;20484;-52
2021/06/22 05:38:14;;;;;;;0.30;0.30;;;24.70;52.80;;;28.35;36.40;101166.31;5155813;27;20061;-51
2021/06/22 05:40:40;;;;;;;0.30;0.30;;;24.80;52.80;;;28.38;36.29;101172.25;5156025;27;20038;-51
2021/06/22 05:43:05;;;;;;;0.63;0.35;;;24.80;52.80;;;28.38;36.34;101168.72;5155684;27;20236;-50
2021/06/22 05:45:31;;;;;;;0.43;0.43;;;24.80;52.70;;;28.42;36.36;101168.31;5155548;27;20050;-49
2021/06/22 05:47:57;;;;;;;0.30;0.30;;;24.80;52.60;;;28.44;36.41;101170.88;5137030;27;20051;-46
2021/06/22 05:50:23;;;;;;;0.30;0.30;;;24.80;52.60;;;28.46;36.43;101171.59;5155554;27;20047;-46
2021/06/22 05:52:50;;;;;;;0.40;0.40;;;24.80;52.60;;;28.44;36.43;101176.25;5135892;27;20097;-48
2021/06/22 05:55:16;;;;;;;0.30;0.30;;;24.80;52.60;;;28.43;36.37;101174.53;5155728;27;20047;-48
2021/06/22 05:57:48;;;;;;;0.30;0.30;;;24.80;52.60;;;28.42;36.19;101189.84;5155402;27;20133;-52
2021/06/22 06:00:20;;;;;;;0.40;0.40;;;24.80;52.60;;;28.43;36.38;101188.88;5155664;27;20080;-49
2021/06/22 06:02:47;;;;;;;0.30;0.30;;;24.80;52.60;;;28.48;36.13;101185.75;5155413;27;20071;-48
2021/06/22 06:05:13;;;;;;;0.40;0.40;;;24.80;52.60;;;28.45;36.16;101173.44;5155176;27;20384;-54
2021/06/22 06:07:39;;;;;;;0.30;0.30;;;24.80;52.60;;;28.44;36.01;101177.09;5155217;27;20050;-51
2021/06/22 06:10:06;;;;;;;0.30;0.30;;;24.80;52.60;;;28.50;36.10;101183.78;5155159;27;20047;-52
2021/06/22 06:12:32;;;;;;;0.40;0.40;;;24.90;53.10;;;28.54;36.02;101189.75;5155183;27;20130;-48
2021/06/22 06:14:58;;;;;;;0.40;0.40;;;24.90;52.50;;;28.66;35.99;101202.13;5155676;27;20133;-48
2021/06/22 06:17:24;;;;;;;0.30;0.30;;;25.10;52.40;;;28.75;36.08;101197.75;5155030;27;20567;-51
2021/06/22 06:19:51;;;;;;;0.40;0.40;;;25.20;52.10;;;28.83;35.60;101195.22;5155034;27;20134;-51
2021/06/22 06:22:18;;;;;;;0.30;0.30;;;25.30;51.90;;;28.90;35.81;101192.81;5155051;27;20492;-50
2021/06/22 06:24:45;;;;;;;0.40;0.40;;;25.30;51.70;;;28.98;35.40;101187.59;5154945;27;20054;-51
2021/06/22 06:27:17;;;;;;;0.30;0.30;;;25.40;51.60;;;29.11;35.52;101200.78;5154740;27;20050;-51
2021/06/22 06:29:53;;;;;;;0.30;0.30;;;25.50;51.40;;;29.15;35.44;101191.41;5136555;27;20130;-51
2021/06/22 06:32:20;;;;;;;0.30;0.30;;;25.50;51.20;;;29.21;35.08;101203.50;5137467;27;20046;-51
2021/06/22 06:34:45;;;;;;;0.30;0.30;;;25.60;51.30;;;29.23;35.06;101205.06;5136704;27;20047;-50
2021/06/22 06:37:11;;;;;;;0.30;0.30;;;25.60;51.20;;;29.27;35.08;101208.31;5154914;27;20072;-51
2021/06/22 06:39:37;;;;;;;0.43;0.43;;;25.60;51.20;;;29.29;35.07;101209.03;5154755;27;20428;-48
2021/06/22 06:42:04;;;;;;;0.30;0.30;;;25.70;51.10;;;29.35;34.86;101206.63;5154819;27;20049;-51
2021/06/22 06:44:29;;;;;;;0.35;0.35;;;25.70;51.00;;;29.38;34.97;101206.31;5154679;27;20536;-53
2021/06/22 06:46:55;;;;;;;0.40;0.40;;;25.70;51.00;;;29.50;35.00;101219.66;5154314;27;20141;-48
2021/06/22 06:49:21;;;;;;;0.38;0.38;;;25.80;50.80;;;29.57;34.78;101218.09;5155150;27;20392;-51
2021/06/22 06:51:48;;;;;;;0.30;0.30;;;25.90;50.60;;;29.61;34.42;101230.28;5133886;27;20536;-48
2021/06/22 06:54:14;;;;;;;0.40;0.40;;;26.00;50.50;;;29.70;34.37;101237.53;5135737;27;20066;-52
2021/06/22 06:56:40;;;;;;;0.70;0.57;;;26.00;50.50;;;29.78;34.45;101244.91;5154577;27;20053;-48
2021/06/22 06:59:06;;;;;;;0.50;0.50;;;26.00;50.40;;;29.79;34.15;101243.91;5154370;27;20484;-47
2021/06/22 07:01:31;;;;;;;0.40;0.40;;;26.00;50.20;;;29.81;34.09;101249.16;5154159;27;20047;-48
2021/06/22 07:03:59;;;;;;;0.50;0.50;;;26.00;50.20;;;29.83;34.08;101250.69;5154334;27;20459;-48
2021/06/22 07:06:25;;;;;;;1.15;0.40;;;26.00;50.30;;;29.79;34.16;101234.97;5154178;27;20046;-47
2021/06/22 07:08:51;;;;;;;0.55;0.40;;;26.00;50.30;;;29.84;34.14;101247.03;5154149;27;20049;-49
2021/06/22 07:11:21;;;;;;;0.47;0.47;;;26.10;50.30;;;29.82;34.01;101238.25;5154573;27;20433;-51
2021/06/22 07:13:50;;;;;;;0.38;0.35;;;26.10;50.20;;;29.88;34.11;101245.72;5154080;27;20095;-46
2021/06/22 07:16:17;;;;;;;0.45;0.45;;;26.10;50.20;;;29.87;33.95;101243.16;5154480;27;20051;-48
2021/06/22 07:18:43;;;;;;;1.35;0.50;;;26.10;50.10;;;29.89;34.01;101244.75;5154177;27;20091;-49
2021/06/22 07:21:09;;;;;;;0.80;0.60;;;26.10;50.10;;;29.89;33.94;101246.59;5154035;27;20050;-49
2021/06/22 07:23:35;;;;;;;0.38;0.38;;;26.10;50.00;;;29.81;33.96;101244.63;5154448;27;20055;-50
2021/06/22 07:26:01;;;;;;;0.77;0.50;;;26.10;50.10;;;29.85;34.11;101251.41;5154145;27;20050;-53
2021/06/22 07:28:27;;;;;;;0.40;0.40;;;26.20;50.40;;;29.92;33.99;101254.38;5154094;27;20051;-46
2021/06/22 07:30:52;;;;;;;0.63;0.50;;;26.20;50.10;;;29.99;33.97;101254.63;5153976;27;20111;-51
2021/06/22 07:33:18;;;;;;;0.75;0.50;;;26.30;49.90;;;30.06;33.71;101251.22;5154001;27;20046;-48
2021/06/22 07:35:44;;;;;;;0.50;0.50;;;26.30;49.80;;;30.13;33.78;101254.19;5135615;27;20047;-51
2021/06/22 07:38:10;;;;;;;0.40;0.40;;;26.40;49.70;;;30.20;33.55;101262.53;5153934;27;20051;-48
2021/06/22 07:40:37;;;;;;;0.85;0.55;;;26.50;49.60;;;30.26;33.61;101256.56;5135152;27;20046;-49
2021/06/22 07:43:04;;;;;;;0.93;0.55;;;26.50;49.40;;;30.35;33.50;101252.13;5154939;27;20091;-46
2021/06/22 07:45:30;;;;;;;0.50;0.50;;;26.60;49.30;;;30.42;33.15;101255.97;5157621;27;20078;-50
2021/06/22 07:47:56;;;;;;;0.70;0.50;;;26.70;49.10;;;30.46;33.10;101249.28;5157715;27;20047;-48
2021/06/22 07:50:24;;;;;;;0.63;0.50;;;26.70;49.00;;;30.48;33.02;101258.91;5138324;27;20548;-48
2021/06/22 07:52:50;;;;;;;0.45;0.45;;;26.70;49.00;;;30.52;32.93;101258.63;5157599;27;20516;-49
2021/06/22 07:55:16;;;;;;;0.50;0.50;;;26.70;48.90;;;30.55;33.02;101267.25;5157525;27;20487;-50
2021/06/22 07:57:50;;;;;;;0.77;0.50;;;26.70;48.90;;;30.53;33.09;101269.28;5157334;27;20051;-50
2021/06/22 08:03:10;;;;;;;1.27;0.68;;;26.60;48.80;;;30.43;33.05;101274.69;5157543;27;20042;-53
2021/06/22 08:05:37;;;;;;;1.55;0.80;;;26.60;49.00;;;30.36;33.01;101265.50;5157316;27;20043;-48
2021/06/22 08:08:03;;;;;;;0.77;0.70;;;26.50;49.10;;;30.32;33.01;101274.00;5157132;27;20500;-50
2021/06/22 08:10:30;;;;;;;0.60;0.60;;;26.50;49.20;;;30.33;33.30;101270.31;5157788;27;20047;-48
2021/06/22 08:12:57;;;;;;;1.27;0.68;;;26.50;49.10;;;30.34;33.25;101270.19;5157112;27;20484;-52
2021/06/22 08:15:24;;;;;;;0.98;0.65;;;26.60;49.30;;;30.36;33.25;101265.50;5157416;27;20050;-48
2021/06/22 08:17:50;;;;;;;0.82;0.60;;;26.70;49.10;;;30.42;33.09;101264.06;5138721;27;20086;-51
2021/06/22 08:20:17;;;;;;;1.10;0.68;;;26.70;48.90;;;30.48;32.94;101260.78;5156939;27;20058;-53
2021/06/22 08:22:42;;;;;;;1.05;0.57;;;26.70;48.80;;;30.54;32.97;101270.97;5138236;27;20425;-48
2021/06/22 08:25:09;;;;;;;1.58;0.77;;;26.80;48.80;;;30.62;32.82;101275.63;5157201;27;20054;-47
2021/06/22 08:27:35;;;;;;;1.00;0.60;;;26.90;48.70;;;30.64;32.75;101261.00;5156868;27;20050;-51
2021/06/22 08:30:03;;;;;;;0.98;0.70;;;26.90;48.40;;;30.63;32.72;101267.38;5156785;27;20051;-46
2021/06/22 08:32:29;;;;;;;1.45;1.08;;;26.80;48.40;;;30.58;32.60;101269.66;5157005;27;20560;-47
2021/06/22 08:34:56;;;;;;;0.75;0.70;;;26.80;48.60;;;30.56;32.67;101274.38;5156788;27;20039;-50
2021/06/22 08:37:22;;;;;;;0.70;0.70;;;26.70;48.60;;;30.53;32.73;101280.06;5156934;27;20400;-47
2021/06/22 08:39:48;;;;;;;1.05;0.63;;;26.70;48.70;;;30.50;32.80;101277.66;5156611;27;20047;-47
2021/06/22 08:42:17;;;;;;;0.60;0.60;;;26.60;48.70;;;30.44;32.78;101280.97;5156654;27;20138;-49
2021/06/22 08:44:45;;;;;;;1.40;0.73;;;26.70;48.80;;;30.42;32.83;101283.81;5156501;27;20051;-45
2021/06/22 08:47:13;;;;;;;1.50;0.60;;;26.60;48.80;;;30.42;32.92;101281.13;5156773;27;20051;-46
2021/06/22 08:49:40;;;;;;;1.33;0.85;;;26.60;48.80;;;30.45;32.87;101277.25;5156138;27;20046;-53
2021/06/22 08:52:08;;;;;;;2.15;0.65;;;26.60;48.80;;;30.45;32.71;101280.78;5156799;27;20043;-48
2021/06/22 08:54:34;;;;;;;0.73;0.73;;;26.70;48.80;;;30.45;32.79;101279.94;5155676;27;20070;-49
2021/06/22 08:57:01;;;;;;;1.35;0.70;;;26.70;48.80;;;30.42;32.79;101278.41;5156627;27;20125;-47
2021/06/22 08:59:27;;;;;;;0.60;0.52;;;26.60;48.70;;;30.40;32.79;101272.28;5156168;27;20133;-47
2021/06/22 09:01:53;;;;;;;1.25;0.75;;;26.60;48.80;;;30.40;32.95;101284.94;5156252;27;20055;-51
2021/06/22 09:04:19;;;;;;;1.77;0.60;;;26.60;48.90;;;30.36;32.93;101283.53;5135604;27;20051;-49
2021/06/22 09:06:45;;;;;;;1.92;0.60;;;26.60;48.90;;;30.38;32.92;101285.09;5156091;27;20050;-50
2021/06/22 09:09:12;;;;;;;2.38;0.70;;;26.60;48.90;;;30.39;32.99;101286.81;5156525;27;20055;-47
2021/06/22 09:11:39;;;;;;;1.35;0.63;;;26.60;48.80;;;30.42;32.84;101291.91;5156066;27;20038;-52
2021/06/22 09:14:07;;;;;;;1.38;0.55;;;26.70;48.80;;;30.47;32.88;101289.63;5136845;27;20067;-50
2021/06/22 09:16:33;;;;;;;1.40;0.60;;;26.80;48.70;;;30.49;33.00;101286.78;5156179;27;20082;-48
2021/06/22 09:19:09;;;;;;;0.90;0.73;;;26.70;48.50;;;30.50;32.94;101284.91;5156167;27;20058;-46
2021/06/22 09:21:46;;;;;;;1.10;0.60;;;26.80;48.50;;;30.47;32.67;101277.94;5155951;27;20499;-49
2021/06/22 09:24:26;;;;;;;0.65;0.60;;;26.70;49.00;;;30.47;32.94;101280.66;5155905;27;20050;-48
2021/06/22 09:26:53;;;;;;;0.85;0.65;;;26.70;48.50;;;30.49;32.80;101281.38;5156065;27;20055;-45
2021/06/22 09:29:21;;;;;;;0.77;0.60;;;26.70;48.60;;;30.44;32.86;101278.28;5137206;27;20076;-52
2021/06/22 09:31:58;;;;;;;1.00;0.55;;;26.70;48.50;;;30.42;32.88;101278.41;5156221;27;20095;-47
2021/06/22 09:34:25;;;;;;;1.45;0.80;;;26.70;48.50;;;30.46;32.73;101287.06;5156098;27;20058;-47
2021/06/22 09:36:55;;;;;;;0.70;0.70;;;26.70;48.60;;;30.49;32.64;101281.38;5155715;27;20579;-47
2021/06/22 09:39:24;;;;;;;1.13;0.68;;;26.70;48.50;;;30.52;32.78;101286.44;5156202;27;20061;-47
2021/06/22 09:41:52;;;;;;;1.85;0.52;;;26.80;48.40;;;30.57;32.79;101294.09;5155904;27;20046;-49
2021/06/22 09:44:26;;;;;;;0.98;0.70;;;26.90;48.50;;;30.57;32.77;101286.00;5155594;27;20414;-47
2021/06/22 09:47:00;;;;;;;2.13;0.98;;;26.90;48.30;;;30.61;32.72;101276.63;5136127;27;20047;-50
2021/06/22 09:49:31;;;;;;;1.30;0.70;;;26.90;48.20;;;30.66;32.59;101285.13;5155756;27;20047;-52
2021/06/22 09:52:07;;;;;;;;;;;26.90;48.00;;;30.85;32.46;101289.56;5156235;27;20038;-50
2021/06/22 09:54:44;;;;;;;0.73;0.70;;;27.00;48.00;;;30.79;32.36;101282.06;5155505;27;19921;-52
2021/06/22 09:57:16;;;;;;;1.65;0.80;;;27.00;48.50;;;30.81;32.37;101285.47;5136112;27;20107;-48
2021/06/22 10:00:07;;;;;;;1.88;0.70;;;27.10;47.90;;;30.79;32.30;101282.94;5136538;27;20491;-51
2021/06/22 10:02:58;;;;;;;0.80;0.80;;;27.10;47.80;;;30.83;32.41;101278.91;5155379;27;20104;-50
2021/06/22 10:05:24;;;;;;;1.48;0.70;;;27.10;47.70;;;30.87;32.24;101278.63;5155143;27;20057;-54
2021/06/22 10:08:01;;;;;;;0.80;0.80;;;27.20;47.70;;;30.87;32.28;101284.84;5136541;27;20055;-49
2021/06/22 10:10:38;;;;;;;1.70;1.00;;;27.20;47.50;;;30.92;32.23;101279.84;5155544;27;20047;-51
2021/06/22 10:13:04;;;;;;;1.95;1.30;;;27.20;47.50;;;30.97;32.04;101283.00;5155098;27;20484;-52
2021/06/22 10:15:30;;;;;;;3.78;1.40;;;27.20;47.40;;;30.98;32.01;101284.69;5155311;27;20087;-50
2021/06/22 10:17:56;;;;;;;1.45;0.85;;;27.20;47.40;;;31.01;31.94;101283.56;5135753;27;20051;-48
2021/06/22 10:20:22;;;;;;;1.10;0.82;;;27.30;47.40;;;31.06;31.87;101285.78;5155083;27;20049;-46